createdAt,value
2019-03-09T00:00:51.216Z,6.80
2019-03-09T00:02:43.384Z,6.80
2019-03-09T00:04:36.945Z,6.80
2019-03-09T00:06:29.540Z,6.80
2019-03-09T00:08:22.361Z,6.80
2019-03-09T00:10:15.848Z,6.80
2019-03-09T00:12:08.797Z,6.90
2019-03-09T00:14:01.272Z,6.90
2019-03-09T00:15:54.229Z,6.90
2019-03-09T00:17:46.997Z,6.90
2019-03-09T00:19:40.073Z,6.90
2019-03-09T00:21:33.183Z,6.90
2019-03-09T00:23:30.144Z,6.90
2019-03-09T00:25:24.433Z,7.00
2019-03-09T00:27:19.506Z,7.00
2019-03-09T00:29:26.431Z,7.00
2019-03-09T00:31:26.938Z,7.00
2019-03-09T00:33:19.689Z,7.00
2019-03-09T00:35:13.060Z,7.00
2019-03-09T00:37:05.836Z,7.00
2019-03-09T00:38:58.243Z,7.00
2019-03-09T00:40:52.620Z,7.00
2019-03-09T00:42:45.760Z,7.00
2019-03-09T00:44:38.506Z,6.90
2019-03-09T00:46:32.064Z,7.00
2019-03-09T00:48:24.899Z,6.90
2019-03-09T00:50:17.720Z,6.90
2019-03-09T00:52:10.670Z,6.90
2019-03-09T00:54:03.970Z,6.90
2019-03-09T00:55:56.701Z,6.90
2019-03-09T00:57:49.844Z,6.90
2019-03-09T00:59:42.836Z,6.90
2019-03-09T01:01:36.609Z,6.80
2019-03-09T01:03:29.524Z,6.80
2019-03-09T01:05:22.392Z,6.80
2019-03-09T01:07:16.776Z,6.80
2019-03-09T01:09:09.700Z,6.80
2019-03-09T01:11:02.501Z,6.80
2019-03-09T01:12:55.654Z,6.80
2019-03-09T01:14:47.770Z,6.80
2019-03-09T01:16:40.207Z,6.80
2019-03-09T01:18:32.944Z,6.80
2019-03-09T01:20:26.303Z,6.70
2019-03-09T01:22:19.412Z,6.70
2019-03-09T01:24:12.461Z,6.70
2019-03-09T01:26:05.497Z,6.70
2019-03-09T01:27:58.400Z,6.70
2019-03-09T01:29:51.213Z,6.70
2019-03-09T01:31:44.203Z,6.70
2019-03-09T01:33:37.519Z,6.70
2019-03-09T01:35:30.472Z,6.60
2019-03-09T01:37:23.413Z,6.60
2019-03-09T01:39:16.211Z,6.60
2019-03-09T01:41:08.778Z,6.60
2019-03-09T01:43:01.120Z,6.50
2019-03-09T01:44:54.149Z,6.50
2019-03-09T01:46:46.885Z,6.50
2019-03-09T01:48:39.781Z,6.50
2019-03-09T01:50:32.648Z,6.50
2019-03-09T01:52:25.699Z,6.50
2019-03-09T01:54:18.663Z,6.50
2019-03-09T01:56:11.203Z,6.50
2019-03-09T01:58:03.983Z,6.50
2019-03-09T01:59:58.178Z,6.40
2019-03-09T02:01:51.135Z,6.40
2019-03-09T02:03:43.867Z,6.40
2019-03-09T02:05:36.443Z,6.40
2019-03-09T02:07:29.245Z,6.40
2019-03-09T02:09:22.111Z,6.40
2019-03-09T02:11:14.779Z,6.40
2019-03-09T02:13:07.599Z,6.50
2019-03-09T02:15:00.504Z,6.50
2019-03-09T02:16:54.884Z,6.50
2019-03-09T02:18:47.684Z,6.50
2019-03-09T02:20:40.224Z,6.60
2019-03-09T02:22:33.123Z,6.50
2019-03-09T02:24:26.113Z,6.60
2019-03-09T02:26:18.463Z,6.60
2019-03-09T02:28:11.185Z,6.60
2019-03-09T02:30:17.905Z,6.60
2019-03-09T02:32:10.900Z,6.60
2019-03-09T02:34:04.103Z,6.60
2019-03-09T02:35:56.953Z,6.70
2019-03-09T02:37:49.918Z,6.60
2019-03-09T02:39:44.338Z,6.70
2019-03-09T02:41:37.539Z,6.70
2019-03-09T02:43:30.363Z,6.70
2019-03-09T02:45:25.816Z,6.70
2019-03-09T02:47:18.991Z,6.70
2019-03-09T02:49:11.694Z,6.80
2019-03-09T02:51:04.545Z,6.80
2019-03-09T02:52:57.398Z,6.90
2019-03-09T02:54:49.924Z,6.80
2019-03-09T02:56:45.591Z,6.90
2019-03-09T02:58:38.493Z,6.90
2019-03-09T03:00:32.923Z,6.90
2019-03-09T03:02:27.474Z,6.90
2019-03-09T03:04:20.636Z,7.00
2019-03-09T03:06:13.888Z,7.00
2019-03-09T03:08:06.655Z,7.00
2019-03-09T03:09:59.541Z,7.00
2019-03-09T03:11:52.615Z,7.00
2019-03-09T03:13:46.609Z,7.00
2019-03-09T03:15:39.478Z,7.00
2019-03-09T03:17:32.329Z,7.00
2019-03-09T03:19:25.189Z,7.00
2019-03-09T03:21:17.619Z,7.10
2019-03-09T03:23:10.071Z,7.10
2019-03-09T03:25:02.653Z,7.00
2019-03-09T03:26:55.642Z,7.00
2019-03-09T03:28:48.124Z,7.00
2019-03-09T03:30:40.630Z,6.80
2019-03-09T03:32:34.985Z,6.70
2019-03-09T03:34:28.928Z,6.60
2019-03-09T03:36:21.394Z,6.60
2019-03-09T03:38:14.194Z,6.60
2019-03-09T03:40:09.113Z,6.70
2019-03-09T03:42:02.362Z,6.60
2019-03-09T03:43:54.881Z,6.70
2019-03-09T03:45:47.946Z,6.70
2019-03-09T03:47:40.728Z,6.70
2019-03-09T03:49:34.210Z,6.70
2019-03-09T03:51:27.106Z,6.70
2019-03-09T03:53:20.394Z,6.70
2019-03-09T03:55:12.951Z,6.70
2019-03-09T03:57:07.473Z,6.70
2019-03-09T03:59:00.461Z,6.70
2019-03-09T04:00:53.659Z,6.70
2019-03-09T04:02:46.442Z,6.70
2019-03-09T04:04:39.624Z,6.70
2019-03-09T04:06:32.923Z,6.70
2019-03-09T04:08:25.685Z,6.70
2019-03-09T04:10:18.558Z,6.70
2019-03-09T04:12:11.179Z,6.80
2019-03-09T04:14:06.167Z,6.80
2019-03-09T04:15:58.761Z,6.80
2019-03-09T04:17:53.464Z,6.80
2019-03-09T04:19:46.572Z,6.80
2019-03-09T04:21:39.393Z,6.80
2019-03-09T04:23:33.262Z,6.80
2019-03-09T04:25:26.200Z,6.90
2019-03-09T04:27:18.605Z,6.90
2019-03-09T04:29:11.585Z,7.00
2019-03-09T04:31:04.273Z,7.00
2019-03-09T04:32:57.105Z,7.00
2019-03-09T04:34:50.001Z,7.10
2019-03-09T04:36:45.481Z,7.00
2019-03-09T04:38:37.928Z,7.00
2019-03-09T04:40:30.962Z,7.00
2019-03-09T04:42:23.626Z,7.00
2019-03-09T04:44:15.984Z,7.00
2019-03-09T04:46:08.556Z,7.00
2019-03-09T04:48:01.575Z,7.00
2019-03-09T04:49:54.282Z,7.00
2019-03-09T04:51:47.462Z,7.00
2019-03-09T04:53:40.386Z,6.90
2019-03-09T04:55:33.297Z,6.80
2019-03-09T04:57:26.399Z,6.80
2019-03-09T04:59:19.140Z,6.80
2019-03-09T05:01:12.161Z,6.80
2019-03-09T05:03:04.949Z,6.90
2019-03-09T05:04:58.940Z,6.90
2019-03-09T05:06:51.951Z,6.90
2019-03-09T05:08:48.146Z,6.90
2019-03-09T05:10:44.664Z,6.90
2019-03-09T05:12:37.108Z,6.90
2019-03-09T05:14:30.080Z,7.00
2019-03-09T05:16:22.984Z,7.00
2019-03-09T05:18:18.761Z,7.00
2019-03-09T05:20:11.599Z,7.00
2019-03-09T05:22:04.453Z,6.90
2019-03-09T05:23:57.069Z,6.90
2019-03-09T05:25:51.248Z,6.90
2019-03-09T05:27:45.448Z,7.00
2019-03-09T05:29:38.368Z,7.00
2019-03-09T05:31:31.318Z,7.00
2019-03-09T05:33:24.037Z,7.00
2019-03-09T05:35:16.780Z,7.00
2019-03-09T05:37:09.446Z,7.00
2019-03-09T05:39:02.171Z,7.10
2019-03-09T05:40:56.319Z,7.10
2019-03-09T05:42:49.340Z,7.10
2019-03-09T05:44:42.177Z,7.10
2019-03-09T05:46:36.544Z,7.10
2019-03-09T05:48:30.134Z,7.10
2019-03-09T05:50:22.937Z,7.10
2019-03-09T05:52:22.444Z,7.10
2019-03-09T05:54:14.964Z,7.20
2019-03-09T05:56:08.038Z,7.20
2019-03-09T05:58:00.941Z,7.20
2019-03-09T05:59:53.873Z,7.20
2019-03-09T06:01:46.653Z,7.20
2019-03-09T06:03:39.424Z,7.20
2019-03-09T06:05:37.588Z,7.30
2019-03-09T06:07:30.637Z,7.30
2019-03-09T06:09:23.473Z,7.30
2019-03-09T06:11:16.385Z,7.30
2019-03-09T06:13:09.526Z,7.40
2019-03-09T06:15:02.805Z,7.40
2019-03-09T06:16:57.063Z,7.50
2019-03-09T06:18:49.924Z,7.50
2019-03-09T06:20:42.760Z,7.50
2019-03-09T06:22:35.623Z,7.50
2019-03-09T06:24:27.990Z,7.40
2019-03-09T06:26:20.994Z,7.50
2019-03-09T06:28:13.807Z,7.50
2019-03-09T06:30:09.130Z,7.50
2019-03-09T06:32:33.733Z,7.60
2019-03-09T06:34:26.435Z,7.70
2019-03-09T06:36:22.824Z,7.70
2019-03-09T06:38:30.868Z,7.80
2019-03-09T06:40:24.120Z,7.80
2019-03-09T06:42:41.376Z,7.90
2019-03-09T06:44:34.236Z,7.90
2019-03-09T06:46:26.637Z,7.90
2019-03-09T06:48:19.316Z,8.00
2019-03-09T06:50:14.248Z,8.00
2019-03-09T06:52:06.966Z,8.10
2019-03-09T06:53:59.857Z,8.10
2019-03-09T06:55:52.762Z,8.20
2019-03-09T06:57:45.304Z,8.30
2019-03-09T06:59:37.796Z,8.30
2019-03-09T07:01:30.192Z,8.30
2019-03-09T07:03:22.968Z,8.40
2019-03-09T07:05:15.795Z,8.40
2019-03-09T07:07:08.176Z,8.50
2019-03-09T07:09:00.720Z,8.50
2019-03-09T07:10:54.750Z,8.50
2019-03-09T07:12:47.925Z,8.50
2019-03-09T07:14:54.136Z,8.60
2019-03-09T07:16:46.661Z,8.60
2019-03-09T07:18:41.102Z,8.60
2019-03-09T07:20:34.269Z,8.60
2019-03-09T07:22:27.118Z,8.50
2019-03-09T07:24:19.981Z,8.40
2019-03-09T07:26:13.164Z,8.20
2019-03-09T07:28:09.727Z,8.00
2019-03-09T07:30:02.580Z,7.80
2019-03-09T07:31:57.155Z,7.50
2019-03-09T07:33:51.741Z,7.30
2019-03-09T07:35:44.842Z,7.20
2019-03-09T07:37:37.816Z,7.00
2019-03-09T07:39:30.813Z,7.00
2019-03-09T07:41:23.234Z,6.90
2019-03-09T07:43:15.746Z,6.90
2019-03-09T07:45:13.071Z,6.90
2019-03-09T07:47:05.955Z,6.90
2019-03-09T07:48:58.842Z,6.90
2019-03-09T07:50:51.712Z,6.90
2019-03-09T07:52:44.724Z,7.00
2019-03-09T07:54:37.739Z,7.00
2019-03-09T07:56:31.223Z,7.00
2019-03-09T07:58:23.222Z,7.00
2019-03-09T08:00:21.118Z,7.00
2019-03-09T08:02:13.832Z,7.00
2019-03-09T08:04:06.633Z,7.10
2019-03-09T08:05:59.376Z,7.10
2019-03-09T08:07:52.216Z,7.10
2019-03-09T08:09:45.214Z,7.10
2019-03-09T08:11:38.200Z,7.20
2019-03-09T08:13:30.473Z,7.20
2019-03-09T08:15:23.297Z,7.20
2019-03-09T08:17:16.160Z,7.30
2019-03-09T08:19:09.042Z,7.30
2019-03-09T08:21:01.659Z,7.30
2019-03-09T08:22:55.312Z,7.40
2019-03-09T08:24:47.896Z,7.50
2019-03-09T08:26:41.109Z,7.40
2019-03-09T08:28:33.523Z,7.50
2019-03-09T08:30:27.724Z,7.60
2019-03-09T08:32:20.637Z,7.60
2019-03-09T08:34:13.745Z,7.60
2019-03-09T08:36:06.711Z,7.70
2019-03-09T08:37:59.883Z,7.80
2019-03-09T08:39:53.132Z,7.90
2019-03-09T08:41:45.628Z,8.00
2019-03-09T08:43:39.776Z,8.20
2019-03-09T08:45:33.344Z,8.30
2019-03-09T08:47:27.279Z,8.40
2019-03-09T08:49:20.262Z,8.50
2019-03-09T08:51:13.357Z,8.60
2019-03-09T08:53:06.315Z,8.60
2019-03-09T08:54:58.671Z,8.60
2019-03-09T08:56:52.063Z,8.60
2019-03-09T08:58:45.410Z,8.70
2019-03-09T09:00:38.289Z,8.70
2019-03-09T09:02:31.199Z,8.80
2019-03-09T09:04:24.904Z,8.90
2019-03-09T09:06:19.255Z,9.00
2019-03-09T09:08:11.818Z,9.00
2019-03-09T09:10:07.352Z,9.00
2019-03-09T09:12:00.303Z,9.00
2019-03-09T09:13:54.105Z,9.10
2019-03-09T09:15:46.556Z,9.20
2019-03-09T09:17:39.318Z,9.10
2019-03-09T09:19:32.531Z,9.10
2019-03-09T09:21:25.218Z,9.10
2019-03-09T09:23:17.840Z,9.20
2019-03-09T09:25:11.552Z,9.20
2019-03-09T09:27:05.975Z,9.30
2019-03-09T09:28:59.216Z,9.40
2019-03-09T09:30:51.608Z,9.40
2019-03-09T09:32:44.444Z,9.40
2019-03-09T09:34:36.832Z,9.40
2019-03-09T09:36:29.954Z,9.50
2019-03-09T09:38:22.584Z,9.50
2019-03-09T09:40:23.240Z,9.40
2019-03-09T09:41:59.592Z,9.50
2019-03-09T09:43:34.051Z,9.50
2019-03-09T09:45:13.268Z,9.50
2019-03-09T09:47:06.260Z,9.60
2019-03-09T09:48:59.177Z,9.70
2019-03-09T09:50:33.538Z,9.80
2019-03-09T09:52:07.890Z,9.90
2019-03-09T09:53:42.206Z,9.90
2019-03-09T09:55:18.203Z,9.90
2019-03-09T09:56:52.804Z,9.90
2019-03-09T09:58:27.082Z,9.90
2019-03-09T10:00:01.491Z,10.00
2019-03-09T10:01:36.149Z,10.00
2019-03-09T10:03:10.477Z,10.00
2019-03-09T10:04:44.752Z,10.00
2019-03-09T10:06:19.093Z,10.10
2019-03-09T10:07:53.598Z,10.20
2019-03-09T10:09:27.856Z,10.20
2019-03-09T10:11:02.230Z,10.30
2019-03-09T10:12:36.596Z,10.60
2019-03-09T10:14:10.961Z,10.80
2019-03-09T10:15:45.697Z,11.00
2019-03-09T10:17:20.329Z,11.10
2019-03-09T10:18:54.904Z,11.10
2019-03-09T10:20:30.084Z,11.10
2019-03-09T10:22:04.352Z,11.00
2019-03-09T10:23:38.992Z,11.00
2019-03-09T10:25:13.395Z,11.00
2019-03-09T10:26:47.708Z,11.20
2019-03-09T10:28:22.314Z,11.40
2019-03-09T10:29:56.702Z,11.20
2019-03-09T10:31:31.089Z,11.10
2019-03-09T10:33:05.427Z,11.20
2019-03-09T10:34:39.683Z,11.00
2019-03-09T10:36:13.988Z,10.80
2019-03-09T10:37:49.146Z,10.70
2019-03-09T10:39:24.181Z,10.70
2019-03-09T10:40:58.461Z,10.60
2019-03-09T10:42:32.796Z,10.60
2019-03-09T10:44:07.189Z,10.70
2019-03-09T10:45:41.523Z,10.60
2019-03-09T10:47:15.749Z,10.70
2019-03-09T10:48:50.022Z,10.60
2019-03-09T10:50:25.988Z,10.60
2019-03-09T10:52:00.798Z,10.50
2019-03-09T10:53:35.165Z,10.40
2019-03-09T10:55:18.264Z,10.50
2019-03-09T10:56:52.772Z,10.60
2019-03-09T10:58:28.175Z,10.60
2019-03-09T11:00:02.572Z,10.50
2019-03-09T11:01:38.309Z,10.50
2019-03-09T11:03:13.844Z,10.60
2019-03-09T11:04:48.212Z,10.70
2019-03-09T11:06:22.470Z,10.70
2019-03-09T11:07:56.745Z,10.60
2019-03-09T11:09:31.120Z,10.50
2019-03-09T11:11:05.360Z,10.40
2019-03-09T11:12:39.808Z,10.40
2019-03-09T11:14:14.095Z,10.50
2019-03-09T11:15:48.424Z,10.50
2019-03-09T11:17:41.227Z,10.50
2019-03-09T11:19:34.233Z,10.40
2019-03-09T11:21:27.058Z,10.40
2019-03-09T11:23:20.082Z,10.40
2019-03-09T11:25:12.959Z,10.40
2019-03-09T11:27:06.176Z,10.50
2019-03-09T11:28:58.641Z,10.50
2019-03-09T11:30:32.913Z,10.50
2019-03-09T11:32:07.186Z,10.50
2019-03-09T11:33:41.456Z,10.60
2019-03-09T11:35:15.701Z,10.70
2019-03-09T11:36:49.985Z,10.70
2019-03-09T11:38:24.309Z,10.70
2019-03-09T11:39:58.593Z,10.80
2019-03-09T11:41:32.947Z,10.90
2019-03-09T11:43:07.212Z,10.90
2019-03-09T11:44:42.556Z,10.90
2019-03-09T11:46:16.820Z,11.00
2019-03-09T11:47:51.132Z,11.00
2019-03-09T11:49:25.393Z,11.00
2019-03-09T11:50:59.921Z,11.00
2019-03-09T11:52:34.181Z,11.10
2019-03-09T11:54:08.586Z,11.10
2019-03-09T11:55:43.158Z,11.10
2019-03-09T11:57:17.787Z,11.00
2019-03-09T11:58:52.678Z,10.90
2019-03-09T12:00:47.088Z,10.90
2019-03-09T12:02:39.740Z,10.90
2019-03-09T12:04:32.160Z,10.90
2019-03-09T12:06:25.025Z,11.00
2019-03-09T12:08:17.931Z,11.00
2019-03-09T12:10:11.116Z,11.10
2019-03-09T12:12:05.224Z,11.10
2019-03-09T12:13:58.136Z,11.10
2019-03-09T12:15:50.524Z,11.10
2019-03-09T12:17:43.022Z,11.10
2019-03-09T12:19:35.977Z,11.10
2019-03-09T12:21:28.648Z,11.10
2019-03-09T12:23:22.823Z,11.00
2019-03-09T12:25:16.702Z,11.00
2019-03-09T12:27:09.715Z,11.10
2019-03-09T12:29:02.785Z,11.10
2019-03-09T12:30:55.847Z,11.00
2019-03-09T12:32:48.841Z,11.00
2019-03-09T12:34:41.400Z,11.00
2019-03-09T12:36:34.503Z,11.10
2019-03-09T12:38:27.565Z,11.20
2019-03-09T12:40:20.771Z,11.30
2019-03-09T12:42:13.750Z,11.40
2019-03-09T12:44:06.627Z,11.50
2019-03-09T12:45:59.316Z,11.70
2019-03-09T12:47:52.261Z,11.60
2019-03-09T12:49:46.074Z,11.50
2019-03-09T12:51:38.665Z,11.50
2019-03-09T12:53:31.778Z,11.60
2019-03-09T12:55:24.533Z,11.70
2019-03-09T12:57:17.311Z,11.50
2019-03-09T12:59:10.126Z,11.50
2019-03-09T13:01:02.662Z,11.50
2019-03-09T13:02:37.205Z,11.50
2019-03-09T13:04:11.496Z,11.80
2019-03-09T13:05:46.902Z,11.90
2019-03-09T13:07:22.598Z,11.90
2019-03-09T13:08:56.846Z,12.10
2019-03-09T13:10:31.501Z,12.20
2019-03-09T13:12:06.024Z,12.40
2019-03-09T13:13:40.633Z,12.60
2019-03-09T13:15:15.860Z,12.70
2019-03-09T13:16:50.499Z,12.60
2019-03-09T13:18:25.080Z,12.40
2019-03-09T13:19:59.341Z,12.40
2019-03-09T13:21:33.683Z,12.30
2019-03-09T13:23:08.349Z,12.30
2019-03-09T13:24:43.083Z,12.30
2019-03-09T13:26:17.403Z,12.20
2019-03-09T13:27:51.646Z,12.10
2019-03-09T13:29:26.988Z,12.00
2019-03-09T13:31:01.260Z,11.90
2019-03-09T13:32:35.813Z,11.80
2019-03-09T13:34:10.088Z,11.80
2019-03-09T13:35:44.734Z,11.80
2019-03-09T13:37:19.325Z,11.80
2019-03-09T13:39:11.760Z,11.70
2019-03-09T13:40:46.154Z,11.70
2019-03-09T13:42:20.506Z,11.70
2019-03-09T13:43:54.753Z,11.70
2019-03-09T13:45:29.035Z,11.70
2019-03-09T13:47:04.303Z,11.70
2019-03-09T13:48:38.876Z,11.70
2019-03-09T13:50:14.395Z,11.60
2019-03-09T13:51:48.913Z,11.60
2019-03-09T13:53:23.715Z,11.60
2019-03-09T13:54:58.203Z,11.60
2019-03-09T13:56:32.637Z,11.60
2019-03-09T13:58:07.227Z,11.70
2019-03-09T13:59:41.771Z,11.60
2019-03-09T14:01:16.042Z,11.50
2019-03-09T14:02:50.676Z,11.50
2019-03-09T14:04:24.943Z,11.50
2019-03-09T14:05:59.186Z,11.60
2019-03-09T14:07:33.475Z,11.50
2019-03-09T14:09:07.729Z,11.50
2019-03-09T14:10:43.637Z,11.50
2019-03-09T14:12:18.056Z,11.50
2019-03-09T14:14:12.014Z,11.50
2019-03-09T14:16:05.100Z,11.50
2019-03-09T14:17:58.022Z,11.50
2019-03-09T14:19:51.047Z,11.40
2019-03-09T14:21:44.162Z,11.30
2019-03-09T14:23:36.549Z,11.30
2019-03-09T14:25:29.169Z,11.30
2019-03-09T14:27:22.009Z,11.20
2019-03-09T14:29:14.859Z,11.20
2019-03-09T14:31:08.007Z,11.10
2019-03-09T14:33:00.844Z,11.10
2019-03-09T14:34:53.809Z,11.00
2019-03-09T14:36:46.695Z,11.00
2019-03-09T14:38:39.454Z,11.00
2019-03-09T14:40:33.443Z,11.10
2019-03-09T14:42:25.471Z,11.10
2019-03-09T14:43:59.736Z,11.10
2019-03-09T14:45:52.764Z,11.20
2019-03-09T14:47:45.658Z,11.10
2019-03-09T14:49:38.546Z,11.00
2019-03-09T14:51:31.648Z,11.00
2019-03-09T14:53:24.108Z,10.90
2019-03-09T14:55:16.926Z,10.90
2019-03-09T14:57:09.304Z,10.90
2019-03-09T14:59:02.224Z,10.90
2019-03-09T15:00:54.582Z,10.90
2019-03-09T15:02:47.137Z,10.90
2019-03-09T15:04:39.920Z,11.00
2019-03-09T15:06:32.775Z,10.90
2019-03-09T15:08:27.024Z,11.00
2019-03-09T15:10:19.973Z,10.90
2019-03-09T15:12:13.353Z,10.90
2019-03-09T15:14:06.404Z,10.90
2019-03-09T15:15:59.911Z,11.00
2019-03-09T15:17:53.303Z,11.00
2019-03-09T15:19:46.081Z,11.10
2019-03-09T15:21:38.891Z,11.10
2019-03-09T15:23:31.709Z,11.10
2019-03-09T15:25:24.186Z,11.20
2019-03-09T15:27:18.396Z,11.20
2019-03-09T15:29:12.053Z,11.20
2019-03-09T15:31:05.109Z,11.20
2019-03-09T15:32:58.209Z,11.20
2019-03-09T15:34:50.730Z,11.10
2019-03-09T15:36:43.960Z,11.10
2019-03-09T15:38:36.059Z,11.10
2019-03-09T15:40:29.084Z,11.00
2019-03-09T15:42:22.180Z,11.00
2019-03-09T15:44:15.033Z,11.00
2019-03-09T15:46:08.186Z,10.90
2019-03-09T15:48:01.214Z,10.90
2019-03-09T15:49:54.192Z,10.90
2019-03-09T15:51:47.145Z,10.90
2019-03-09T15:53:40.273Z,10.90
2019-03-09T15:55:33.343Z,10.90
2019-03-09T15:57:26.281Z,10.90
2019-03-09T15:59:18.729Z,10.90
2019-03-09T16:01:11.936Z,10.70
2019-03-09T16:03:04.788Z,10.60
2019-03-09T16:04:57.223Z,10.40
2019-03-09T16:06:49.901Z,10.20
2019-03-09T16:08:42.677Z,9.90
2019-03-09T16:10:35.488Z,9.80
2019-03-09T16:12:29.506Z,9.70
2019-03-09T16:14:22.444Z,9.60
2019-03-09T16:16:15.247Z,9.50
2019-03-09T16:18:08.324Z,9.40
2019-03-09T16:20:01.227Z,9.40
2019-03-09T16:21:53.612Z,9.40
2019-03-09T16:23:46.545Z,9.30
2019-03-09T16:25:39.412Z,9.40
2019-03-09T16:27:32.436Z,9.40
2019-03-09T16:29:25.413Z,9.40
2019-03-09T16:31:18.462Z,9.40
2019-03-09T16:33:10.768Z,9.50
2019-03-09T16:35:04.793Z,9.50
2019-03-09T16:36:57.977Z,9.50
2019-03-09T16:38:51.612Z,9.50
2019-03-09T16:40:44.526Z,9.50
2019-03-09T16:42:37.401Z,9.50
2019-03-09T16:44:30.348Z,9.50
2019-03-09T16:46:23.537Z,9.50
2019-03-09T16:48:15.928Z,9.50
2019-03-09T16:50:11.595Z,9.50
2019-03-09T16:52:04.580Z,9.50
2019-03-09T16:53:57.604Z,9.60
2019-03-09T16:55:50.424Z,9.60
2019-03-09T16:57:42.877Z,9.60
2019-03-09T16:59:35.688Z,9.60
2019-03-09T17:01:29.065Z,9.60
2019-03-09T17:03:22.255Z,9.60
2019-03-09T17:05:15.508Z,9.60
2019-03-09T17:07:08.288Z,9.60
2019-03-09T17:09:01.553Z,9.70
2019-03-09T17:10:55.935Z,9.70
2019-03-09T17:12:48.632Z,9.70
2019-03-09T17:14:42.446Z,9.70
2019-03-09T17:16:35.945Z,9.70
2019-03-09T17:18:29.286Z,9.70
2019-03-09T17:20:22.157Z,9.70
2019-03-09T17:22:17.367Z,9.80
2019-03-09T17:24:10.082Z,9.80
2019-03-09T17:26:02.569Z,9.80
2019-03-09T17:27:56.290Z,9.80
2019-03-09T17:29:48.705Z,9.80
2019-03-09T17:31:41.539Z,9.80
2019-03-09T17:33:34.517Z,9.80
2019-03-09T17:35:28.637Z,9.90
2019-03-09T17:37:21.365Z,9.90
2019-03-09T17:39:14.626Z,9.90
2019-03-09T17:41:07.830Z,9.90
2019-03-09T17:43:00.749Z,9.90
2019-03-09T17:44:53.754Z,10.00
2019-03-09T17:46:46.600Z,10.00
2019-03-09T17:48:39.868Z,9.90
2019-03-09T17:50:32.538Z,9.90
2019-03-09T17:52:25.362Z,9.90
2019-03-09T17:54:18.413Z,9.90
2019-03-09T17:56:11.190Z,9.90
2019-03-09T17:58:04.739Z,9.90
2019-03-09T17:59:57.758Z,9.90
2019-03-09T18:01:50.532Z,9.90
2019-03-09T18:03:43.496Z,9.90
2019-03-09T18:05:37.564Z,9.90
2019-03-09T18:07:30.361Z,9.90
2019-03-09T18:09:22.985Z,9.90
2019-03-09T18:11:16.401Z,9.90
2019-03-09T18:13:09.277Z,9.90
2019-03-09T18:15:02.062Z,9.90
2019-03-09T18:16:55.268Z,9.90
2019-03-09T18:18:48.773Z,9.90
2019-03-09T18:20:41.537Z,9.90
2019-03-09T18:22:34.756Z,9.90
2019-03-09T18:24:27.725Z,9.90
2019-03-09T18:26:20.465Z,9.90
2019-03-09T18:28:13.284Z,9.90
2019-03-09T18:30:09.433Z,9.80
2019-03-09T18:32:02.498Z,9.80
2019-03-09T18:33:54.915Z,9.80
2019-03-09T18:35:49.049Z,9.90
2019-03-09T18:37:41.904Z,9.90
2019-03-09T18:39:34.707Z,9.80
2019-03-09T18:41:28.652Z,9.80
2019-03-09T18:43:21.555Z,9.80
2019-03-09T18:45:17.633Z,9.80
2019-03-09T18:47:10.907Z,9.80
2019-03-09T18:49:03.388Z,9.80
2019-03-09T18:50:55.880Z,9.80
2019-03-09T18:52:48.956Z,9.80
2019-03-09T18:54:41.159Z,9.80
2019-03-09T18:56:33.323Z,9.80
2019-03-09T18:58:25.134Z,9.80
2019-03-09T19:00:18.700Z,9.80
2019-03-09T19:02:11.313Z,9.90
2019-03-09T19:04:03.543Z,9.90
2019-03-09T19:05:56.231Z,9.80
2019-03-09T19:07:48.501Z,9.90
2019-03-09T19:09:40.943Z,9.90
2019-03-09T19:11:33.269Z,9.90
2019-03-09T19:13:25.520Z,9.90
2019-03-09T19:15:18.628Z,9.90
2019-03-09T19:17:11.494Z,9.90
2019-03-09T19:19:04.653Z,9.90
2019-03-09T19:20:57.843Z,9.90
2019-03-09T19:22:50.961Z,10.00
2019-03-09T19:24:43.754Z,10.00
2019-03-09T19:26:37.196Z,10.00
2019-03-09T19:28:29.727Z,10.10
2019-03-09T19:30:22.801Z,10.20
2019-03-09T19:32:16.308Z,10.20
2019-03-09T19:34:11.003Z,10.10
2019-03-09T19:36:04.696Z,10.10
2019-03-09T19:37:58.417Z,10.20
2019-03-09T19:39:51.968Z,10.20
2019-03-09T19:41:45.747Z,10.20
2019-03-09T19:43:38.885Z,10.30
2019-03-09T19:45:32.794Z,10.30
2019-03-09T19:47:26.399Z,10.20
2019-03-09T19:49:21.192Z,10.20
2019-03-09T19:51:14.806Z,10.20
2019-03-09T19:53:09.441Z,10.30
2019-03-09T19:55:02.868Z,10.30
2019-03-09T19:56:56.533Z,10.40
2019-03-09T19:58:50.276Z,10.30
2019-03-09T20:00:43.759Z,10.30
2019-03-09T20:02:37.405Z,10.30
2019-03-09T20:04:30.929Z,10.30
2019-03-09T20:06:24.726Z,10.30
2019-03-09T20:08:17.986Z,10.30
2019-03-09T20:10:18.274Z,10.30
2019-03-09T20:12:11.793Z,10.30
2019-03-09T20:14:05.363Z,10.40
2019-03-09T20:15:59.084Z,10.40
2019-03-09T20:17:52.775Z,10.50
2019-03-09T20:19:46.605Z,10.50
2019-03-09T20:21:40.880Z,10.50
2019-03-09T20:23:34.445Z,10.50
2019-03-09T20:25:28.636Z,10.50
2019-03-09T20:27:22.245Z,10.50
2019-03-09T20:29:15.878Z,10.50
2019-03-09T20:31:09.513Z,10.50
2019-03-09T20:33:03.136Z,10.60
2019-03-09T20:34:56.669Z,10.60
2019-03-09T20:36:50.426Z,10.60
2019-03-09T20:38:44.322Z,10.60
2019-03-09T20:40:37.979Z,10.50
2019-03-09T20:42:31.545Z,10.60
2019-03-09T20:44:26.525Z,10.70
2019-03-09T20:46:20.017Z,10.70
2019-03-09T20:48:13.535Z,10.60
2019-03-09T20:49:48.398Z,10.60
2019-03-09T20:51:23.083Z,10.70
2019-03-09T20:52:57.823Z,10.70
2019-03-09T20:54:32.692Z,10.80
2019-03-09T20:56:07.391Z,10.80
2019-03-09T20:57:42.223Z,10.80
2019-03-09T20:59:17.956Z,10.70
2019-03-09T21:00:52.724Z,10.70
2019-03-09T21:02:28.015Z,10.70
2019-03-09T21:04:03.195Z,10.70
2019-03-09T21:05:37.885Z,10.70
2019-03-09T21:07:12.729Z,10.70
2019-03-09T21:08:48.433Z,10.80
2019-03-09T21:10:23.221Z,10.80
2019-03-09T21:11:57.905Z,10.90
2019-03-09T21:13:32.706Z,10.80
2019-03-09T21:15:07.753Z,10.80
2019-03-09T21:16:42.542Z,10.80
2019-03-09T21:18:17.369Z,10.90
2019-03-09T21:19:52.076Z,10.90
2019-03-09T21:21:26.851Z,10.90
2019-03-09T21:23:01.945Z,10.90
2019-03-09T21:24:56.637Z,10.80
2019-03-09T21:26:50.029Z,10.90
2019-03-09T21:28:43.554Z,10.80
2019-03-09T21:30:36.988Z,10.80
2019-03-09T21:32:30.572Z,10.90
2019-03-09T21:34:24.162Z,10.90
2019-03-09T21:36:17.965Z,10.90
2019-03-09T21:38:11.323Z,10.80
2019-03-09T21:40:05.647Z,10.70
2019-03-09T21:41:59.871Z,10.70
2019-03-09T21:43:53.286Z,10.80
2019-03-09T21:45:46.308Z,10.80
2019-03-09T21:47:39.456Z,10.80
2019-03-09T21:49:32.286Z,10.80
2019-03-09T21:51:24.936Z,10.80
2019-03-09T21:53:18.271Z,10.70
2019-03-09T21:55:12.202Z,10.70
2019-03-09T21:57:05.137Z,10.70
2019-03-09T21:58:57.353Z,10.70
2019-03-09T22:00:49.597Z,10.70
2019-03-09T22:02:42.696Z,10.70
2019-03-09T22:04:35.203Z,10.80
2019-03-09T22:06:27.113Z,10.80
2019-03-09T22:08:19.669Z,10.70
2019-03-09T22:10:12.554Z,10.80
2019-03-09T22:12:04.542Z,10.70
2019-03-09T22:13:56.712Z,10.80
2019-03-09T22:15:49.095Z,10.80
2019-03-09T22:17:41.008Z,10.70
2019-03-09T22:19:32.790Z,10.80
2019-03-09T22:21:24.809Z,10.70
2019-03-09T22:23:16.914Z,10.70
2019-03-09T22:25:12.612Z,10.70
2019-03-09T22:27:30.161Z,10.70
2019-03-09T22:29:22.288Z,10.80
2019-03-09T22:31:14.052Z,10.80
2019-03-09T22:33:06.200Z,10.80
2019-03-09T22:34:58.113Z,10.80
2019-03-09T22:36:50.168Z,10.90
2019-03-09T22:38:42.152Z,10.80
2019-03-09T22:40:34.329Z,10.90
2019-03-09T22:42:26.132Z,10.90
2019-03-09T22:44:19.180Z,10.90
2019-03-09T22:46:10.987Z,10.90
2019-03-09T22:48:03.284Z,10.80
2019-03-09T22:49:55.119Z,10.80
2019-03-09T22:51:47.244Z,10.80
2019-03-09T22:53:40.720Z,10.80
2019-03-09T22:55:32.696Z,10.80
2019-03-09T22:57:24.646Z,10.80
2019-03-09T22:59:16.768Z,10.80
2019-03-09T23:01:08.688Z,10.80
2019-03-09T23:03:02.356Z,10.70
2019-03-09T23:04:54.399Z,10.80
2019-03-09T23:06:47.055Z,10.80
2019-03-09T23:08:42.206Z,10.80
2019-03-09T23:10:34.686Z,10.80
2019-03-09T23:12:26.776Z,10.70
2019-03-09T23:14:20.727Z,10.70
2019-03-09T23:16:12.740Z,10.80
2019-03-09T23:18:05.288Z,10.80
2019-03-09T23:19:57.561Z,10.80
2019-03-09T23:21:49.278Z,10.70
2019-03-09T23:23:41.531Z,10.70
2019-03-09T23:25:33.811Z,10.70
2019-03-09T23:27:26.051Z,10.70
2019-03-09T23:29:17.917Z,10.70
2019-03-09T23:31:10.188Z,10.70
2019-03-09T23:33:02.164Z,10.70
2019-03-09T23:34:54.467Z,10.70
2019-03-09T23:36:46.673Z,10.70
2019-03-09T23:38:38.516Z,10.80
2019-03-09T23:40:30.529Z,10.70
2019-03-09T23:42:22.609Z,10.70
2019-03-09T23:44:14.779Z,10.70
2019-03-09T23:46:07.049Z,10.60
2019-03-09T23:47:58.936Z,10.60
2019-03-09T23:49:50.733Z,10.70
2019-03-09T23:51:45.563Z,10.70
2019-03-09T23:53:37.345Z,10.70
2019-03-09T23:55:29.488Z,10.70
2019-03-09T23:57:21.587Z,10.70
2019-03-09T23:59:13.735Z,10.70
